createdAt,value
2023-05-18T00:00:42.015Z,11.71
2023-05-18T00:01:42.056Z,11.58
2023-05-18T00:02:42.120Z,11.64
2023-05-18T00:03:42.310Z,11.68
2023-05-18T00:04:42.132Z,11.75
2023-05-18T00:05:42.142Z,11.77
2023-05-18T00:06:42.205Z,11.73
2023-05-18T00:07:42.221Z,11.68
2023-05-18T00:08:42.285Z,11.74
2023-05-18T00:09:42.310Z,11.81
2023-05-18T00:10:42.313Z,11.68
2023-05-18T00:11:42.320Z,11.57
2023-05-18T00:12:42.344Z,11.70
2023-05-18T00:13:42.401Z,11.60
2023-05-18T00:14:42.449Z,11.48
2023-05-18T00:15:42.480Z,11.29
2023-05-18T00:16:42.567Z,11.05
2023-05-18T00:17:42.640Z,10.89
2023-05-18T00:18:42.659Z,11.00
2023-05-18T00:19:42.674Z,11.03
2023-05-18T00:20:42.712Z,11.16
2023-05-18T00:21:42.724Z,11.26
2023-05-18T00:22:42.738Z,11.26
2023-05-18T00:23:42.771Z,11.30
2023-05-18T00:24:42.764Z,11.40
2023-05-18T00:25:42.791Z,11.40
2023-05-18T00:26:42.830Z,11.48
2023-05-18T00:27:42.833Z,11.53
2023-05-18T00:28:42.889Z,11.63
2023-05-18T00:29:42.908Z,11.54
2023-05-18T00:30:42.953Z,11.46
2023-05-18T00:31:43.036Z,11.50
2023-05-18T00:32:43.083Z,11.44
2023-05-18T00:33:43.052Z,11.55
2023-05-18T00:34:43.078Z,11.47
2023-05-18T00:35:43.150Z,11.55
2023-05-18T00:36:43.160Z,11.53
2023-05-18T00:37:43.205Z,11.50
2023-05-18T00:38:43.274Z,11.48
2023-05-18T00:39:43.278Z,11.43
2023-05-18T00:40:43.331Z,11.27
2023-05-18T00:41:43.384Z,11.26
2023-05-18T00:42:43.440Z,11.17
2023-05-18T00:43:43.454Z,11.09
2023-05-18T00:44:43.457Z,11.17
2023-05-18T00:45:43.513Z,11.23
2023-05-18T00:46:43.476Z,11.27
2023-05-18T00:47:43.514Z,11.41
2023-05-18T00:48:43.559Z,11.26
2023-05-18T00:49:43.608Z,11.31
2023-05-18T00:50:43.647Z,11.16
2023-05-18T00:51:43.699Z,11.17
2023-05-18T00:52:43.784Z,11.30
2023-05-18T00:53:44.319Z,11.37
2023-05-18T00:54:43.824Z,11.43
2023-05-18T00:55:43.840Z,11.46
2023-05-18T00:56:43.860Z,11.31
2023-05-18T00:57:43.905Z,11.40
2023-05-18T00:58:43.914Z,11.48
2023-05-18T00:59:43.964Z,11.47
2023-05-18T01:00:44.057Z,11.47
2023-05-18T01:01:44.229Z,11.36
2023-05-18T01:02:44.129Z,11.34
2023-05-18T01:03:44.092Z,11.29
2023-05-18T01:04:44.114Z,11.36
2023-05-18T01:05:44.138Z,11.37
2023-05-18T01:06:44.185Z,11.41
2023-05-18T01:07:44.207Z,11.46
2023-05-18T01:08:44.215Z,11.29
2023-05-18T01:09:44.214Z,11.16
2023-05-18T01:10:44.269Z,11.15
2023-05-18T01:11:44.299Z,11.23
2023-05-18T01:12:44.352Z,11.17
2023-05-18T01:13:44.323Z,11.30
2023-05-18T01:14:44.345Z,11.31
2023-05-18T01:15:44.428Z,11.34
2023-05-18T01:16:44.483Z,11.27
2023-05-18T01:17:44.553Z,11.29
2023-05-18T01:18:44.567Z,11.27
2023-05-18T01:19:44.553Z,11.17
2023-05-18T01:20:44.606Z,11.27
2023-05-18T01:21:44.612Z,11.30
2023-05-18T01:22:44.670Z,11.29
2023-05-18T01:23:44.671Z,11.36
2023-05-18T01:24:44.743Z,11.26
2023-05-18T01:25:44.778Z,11.22
2023-05-18T01:26:44.844Z,11.16
2023-05-18T01:27:44.864Z,11.02
2023-05-18T01:28:44.900Z,11.08
2023-05-18T01:29:45.059Z,11.05
2023-05-18T01:30:45.000Z,11.02
2023-05-18T01:31:45.030Z,11.15
2023-05-18T01:32:45.077Z,11.06
2023-05-18T01:33:45.038Z,11.17
2023-05-18T01:34:45.113Z,11.27
2023-05-18T01:35:45.102Z,11.27
2023-05-18T01:36:45.163Z,11.26
2023-05-18T01:37:45.205Z,11.38
2023-05-18T01:38:45.199Z,11.44
2023-05-18T01:39:45.280Z,11.50
2023-05-18T01:40:45.348Z,11.53
2023-05-18T01:41:45.368Z,11.60
2023-05-18T01:42:45.366Z,11.61
2023-05-18T01:43:45.440Z,11.51
2023-05-18T01:44:45.491Z,11.46
2023-05-18T01:45:45.536Z,11.40
2023-05-18T01:46:45.648Z,11.17
2023-05-18T01:47:45.608Z,11.17
2023-05-18T01:48:45.614Z,11.27
2023-05-18T01:49:45.634Z,11.26
2023-05-18T01:50:45.638Z,11.27
2023-05-18T01:51:45.676Z,11.34
2023-05-18T01:52:45.683Z,10.96
2023-05-18T01:53:45.695Z,10.98
2023-05-18T01:54:45.737Z,10.88
2023-05-18T01:55:45.732Z,10.95
2023-05-18T01:56:45.804Z,10.88
2023-05-18T01:57:45.806Z,10.55
2023-05-18T01:58:45.824Z,10.54
2023-05-18T01:59:45.933Z,10.37
2023-05-18T02:00:45.930Z,10.41
2023-05-18T02:01:45.978Z,10.27
2023-05-18T02:02:46.048Z,10.19
2023-05-18T02:03:46.017Z,10.14
2023-05-18T02:04:45.971Z,10.39
2023-05-18T02:05:45.995Z,10.19
2023-05-18T02:06:45.985Z,10.41
2023-05-18T02:07:46.081Z,10.29
2023-05-18T02:08:46.078Z,10.34
2023-05-18T02:09:46.147Z,10.31
2023-05-18T02:10:46.185Z,10.36
2023-05-18T02:11:46.241Z,10.41
2023-05-18T02:12:47.101Z,10.60
2023-05-18T02:13:46.313Z,10.58
2023-05-18T02:14:46.346Z,10.47
2023-05-18T02:15:46.428Z,10.62
2023-05-18T02:16:46.510Z,10.54
2023-05-18T02:17:46.447Z,10.51
2023-05-18T02:18:46.488Z,10.45
2023-05-18T02:19:46.471Z,10.43
2023-05-18T02:20:46.645Z,10.25
2023-05-18T02:21:46.529Z,10.06
2023-05-18T02:22:46.595Z,10.06
2023-05-18T02:23:46.582Z,10.03
2023-05-18T02:24:46.614Z,10.21
2023-05-18T02:25:46.639Z,10.03
2023-05-18T02:26:46.643Z,10.06
2023-05-18T02:27:46.707Z,10.03
2023-05-18T02:28:46.752Z,10.12
2023-05-18T02:29:46.761Z,10.02
2023-05-18T02:30:46.791Z,9.97
2023-05-18T02:31:46.829Z,10.03
2023-05-18T02:32:46.945Z,10.12
2023-05-18T02:33:46.873Z,10.12
2023-05-18T02:34:46.945Z,10.31
2023-05-18T02:35:46.955Z,10.34
2023-05-18T02:36:46.951Z,10.47
2023-05-18T02:37:46.999Z,10.36
2023-05-18T02:38:47.022Z,10.50
2023-05-18T02:39:47.039Z,10.58
2023-05-18T02:40:47.018Z,10.71
2023-05-18T02:41:47.054Z,10.61
2023-05-18T02:42:47.066Z,10.67
2023-05-18T02:43:47.119Z,10.57
2023-05-18T02:44:47.160Z,10.68
2023-05-18T02:45:47.240Z,10.76
2023-05-18T02:46:47.254Z,10.82
2023-05-18T02:47:47.335Z,10.94
2023-05-18T02:48:47.326Z,10.94
2023-05-18T02:49:47.375Z,10.79
2023-05-18T02:50:47.398Z,10.79
2023-05-18T02:51:47.410Z,10.72
2023-05-18T02:52:47.475Z,10.68
2023-05-18T02:53:47.496Z,10.79
2023-05-18T02:54:47.513Z,10.43
2023-05-18T02:55:47.530Z,10.61
2023-05-18T02:56:47.527Z,10.47
2023-05-18T02:57:47.579Z,10.40
2023-05-18T02:58:47.645Z,10.48
2023-05-18T02:59:47.723Z,10.39
2023-05-18T03:00:47.720Z,10.31
2023-05-18T03:01:47.892Z,10.30
2023-05-18T03:02:47.819Z,10.16
2023-05-18T03:03:48.004Z,10.10
2023-05-18T03:04:49.445Z,10.09
2023-05-18T03:05:47.857Z,10.10
2023-05-18T03:06:47.865Z,10.21
2023-05-18T03:07:47.940Z,10.36
2023-05-18T03:08:47.988Z,10.13
2023-05-18T03:09:47.998Z,10.17
2023-05-18T03:10:48.045Z,10.31
2023-05-18T03:11:48.069Z,10.17
2023-05-18T03:12:48.122Z,10.23
2023-05-18T03:13:48.145Z,10.29
2023-05-18T03:14:48.188Z,10.29
2023-05-18T03:15:48.234Z,10.36
2023-05-18T03:16:48.287Z,10.21
2023-05-18T03:17:48.341Z,10.17
2023-05-18T03:18:48.383Z,10.16
2023-05-18T03:19:48.382Z,10.25
2023-05-18T03:20:48.426Z,10.41
2023-05-18T03:21:48.471Z,10.52
2023-05-18T03:22:48.480Z,10.52
2023-05-18T03:23:48.493Z,10.52
2023-05-18T03:24:48.482Z,10.43
2023-05-18T03:25:48.498Z,10.61
2023-05-18T03:26:48.559Z,10.72
2023-05-18T03:27:48.554Z,10.79
2023-05-18T03:28:48.619Z,10.83
2023-05-18T03:29:48.659Z,10.88
2023-05-18T03:30:48.704Z,10.85
2023-05-18T03:31:48.773Z,10.95
2023-05-18T03:32:48.820Z,10.88
2023-05-18T03:33:48.818Z,10.99
2023-05-18T03:34:48.854Z,11.08
2023-05-18T03:35:48.919Z,10.88
2023-05-18T03:36:48.920Z,10.95
2023-05-18T03:37:49.628Z,11.06
2023-05-18T03:38:48.983Z,11.15
2023-05-18T03:39:48.996Z,11.23
2023-05-18T03:40:49.038Z,11.20
2023-05-18T03:41:49.064Z,11.16
2023-05-18T03:42:49.106Z,11.16
2023-05-18T03:43:49.128Z,11.27
2023-05-18T03:44:49.118Z,11.31
2023-05-18T03:45:49.129Z,11.34
2023-05-18T03:46:49.194Z,11.47
2023-05-18T03:47:49.222Z,11.47
2023-05-18T03:48:49.189Z,11.54
2023-05-18T03:49:49.274Z,11.55
2023-05-18T03:50:49.227Z,11.61
2023-05-18T03:51:49.233Z,11.61
2023-05-18T03:52:49.284Z,11.54
2023-05-18T03:53:49.281Z,11.60
2023-05-18T03:54:49.286Z,11.58
2023-05-18T03:55:49.311Z,11.63
2023-05-18T03:56:49.336Z,11.63
2023-05-18T03:57:49.330Z,11.67
2023-05-18T03:58:49.352Z,11.70
2023-05-18T03:59:49.372Z,11.68
2023-05-18T04:00:49.443Z,11.71
2023-05-18T04:01:49.417Z,11.74
2023-05-18T04:02:49.480Z,11.63
2023-05-18T04:03:49.549Z,11.43
2023-05-18T04:04:49.520Z,11.48
2023-05-18T04:05:49.566Z,11.51
2023-05-18T04:06:49.610Z,11.48
2023-05-18T04:07:49.610Z,11.57
2023-05-18T04:08:49.705Z,11.53
2023-05-18T04:09:49.728Z,11.48
2023-05-18T04:10:49.747Z,11.57
2023-05-18T04:11:49.808Z,11.61
2023-05-18T04:12:49.864Z,11.70
2023-05-18T04:13:49.858Z,11.75
2023-05-18T04:14:49.867Z,11.73
2023-05-18T04:15:49.883Z,11.78
2023-05-18T04:16:49.999Z,11.82
2023-05-18T04:17:49.964Z,11.75
2023-05-18T04:18:49.995Z,11.75
2023-05-18T04:19:49.939Z,11.71
2023-05-18T04:20:49.969Z,11.60
2023-05-18T04:21:49.969Z,11.65
2023-05-18T04:22:50.001Z,11.54
2023-05-18T04:23:50.005Z,11.55
2023-05-18T04:24:50.042Z,11.61
2023-05-18T04:25:50.060Z,11.57
2023-05-18T04:26:50.060Z,11.44
2023-05-18T04:27:51.528Z,11.47
2023-05-18T04:28:50.085Z,11.41
2023-05-18T04:29:50.118Z,11.31
2023-05-18T04:30:50.147Z,11.51
2023-05-18T04:31:50.174Z,11.48
2023-05-18T04:32:50.221Z,11.40
2023-05-18T04:33:50.255Z,11.44
2023-05-18T04:34:50.284Z,11.50
2023-05-18T04:35:50.367Z,11.50
2023-05-18T04:36:50.482Z,11.53
2023-05-18T04:37:50.485Z,11.61
2023-05-18T04:38:50.585Z,11.64
2023-05-18T04:39:50.560Z,11.70
2023-05-18T04:40:50.652Z,11.70
2023-05-18T04:41:50.692Z,11.73
2023-05-18T04:42:50.683Z,11.68
2023-05-18T04:43:50.604Z,11.67
2023-05-18T04:44:50.641Z,11.63
2023-05-18T04:45:50.869Z,11.75
2023-05-18T04:46:50.674Z,11.75
2023-05-18T04:47:50.753Z,11.85
2023-05-18T04:48:50.751Z,11.92
2023-05-18T04:49:50.813Z,11.99
2023-05-18T04:50:50.807Z,12.06
2023-05-18T04:51:50.822Z,12.08
2023-05-18T04:52:50.872Z,12.12
2023-05-18T04:53:50.888Z,12.20
2023-05-18T04:54:50.897Z,12.25
2023-05-18T04:55:50.899Z,12.29
2023-05-18T04:56:50.905Z,12.36
2023-05-18T04:57:51.088Z,12.39
2023-05-18T04:58:50.952Z,12.41
2023-05-18T04:59:50.949Z,12.47
2023-05-18T05:00:50.951Z,12.49
2023-05-18T05:01:51.112Z,12.50
2023-05-18T05:02:51.108Z,12.54
2023-05-18T05:03:51.045Z,12.57
2023-05-18T05:04:51.062Z,12.43
2023-05-18T05:05:51.050Z,12.49
2023-05-18T05:06:51.086Z,12.49
2023-05-18T05:07:51.060Z,12.53
2023-05-18T05:08:51.167Z,12.57
2023-05-18T05:09:51.208Z,12.60
2023-05-18T05:10:51.227Z,12.63
2023-05-18T05:11:51.298Z,12.67
2023-05-18T05:12:51.305Z,12.70
2023-05-18T05:13:51.302Z,12.67
2023-05-18T05:14:51.357Z,12.70
2023-05-18T05:15:51.389Z,12.73
2023-05-18T05:16:51.378Z,12.73
2023-05-18T05:17:51.407Z,12.64
2023-05-18T05:18:51.469Z,12.70
2023-05-18T05:19:51.485Z,12.71
2023-05-18T05:20:51.554Z,12.60
2023-05-18T05:21:51.562Z,12.67
2023-05-18T05:22:51.651Z,12.70
2023-05-18T05:23:51.573Z,12.61
2023-05-18T05:24:51.581Z,12.68
2023-05-18T05:25:51.626Z,12.71
2023-05-18T05:26:51.621Z,12.68
2023-05-18T05:27:51.657Z,12.76
2023-05-18T05:28:51.656Z,12.70
2023-05-18T05:29:51.714Z,12.74
2023-05-18T05:30:51.719Z,12.68
2023-05-18T05:31:51.747Z,12.70
2023-05-18T05:32:51.780Z,12.77
2023-05-18T05:33:51.765Z,12.76
2023-05-18T05:34:51.774Z,12.74
2023-05-18T05:35:51.784Z,12.76
2023-05-18T05:36:51.831Z,12.84
2023-05-18T05:37:51.872Z,12.90
2023-05-18T05:38:51.900Z,12.78
2023-05-18T05:39:51.959Z,12.87
2023-05-18T05:40:51.939Z,12.90
2023-05-18T05:41:51.953Z,12.95
2023-05-18T05:42:51.951Z,12.78
2023-05-18T05:43:52.013Z,12.81
2023-05-18T05:44:51.966Z,12.63
2023-05-18T05:45:52.017Z,12.56
2023-05-18T05:46:52.072Z,12.46
2023-05-18T05:47:52.121Z,12.58
2023-05-18T05:48:52.065Z,12.71
2023-05-18T05:49:52.082Z,12.78
2023-05-18T05:50:52.093Z,12.87
2023-05-18T05:51:52.119Z,12.95
2023-05-18T05:52:52.134Z,13.04
2023-05-18T05:53:52.168Z,13.11
2023-05-18T05:54:52.225Z,13.15
2023-05-18T05:55:52.210Z,13.22
2023-05-18T05:56:52.289Z,13.29
2023-05-18T05:57:52.321Z,13.16
2023-05-18T05:58:52.410Z,13.21
2023-05-18T05:59:52.386Z,13.21
2023-05-18T06:00:52.415Z,13.33
2023-05-18T06:01:52.462Z,13.39
2023-05-18T06:02:52.437Z,13.29
2023-05-18T06:03:52.461Z,13.27
2023-05-18T06:04:52.529Z,13.38
2023-05-18T06:05:52.496Z,13.46
2023-05-18T06:06:52.496Z,13.27
2023-05-18T06:07:52.499Z,13.27
2023-05-18T06:08:52.549Z,13.33
2023-05-18T06:09:52.581Z,13.46
2023-05-18T06:10:52.569Z,13.53
2023-05-18T06:11:52.561Z,13.60
2023-05-18T06:12:52.567Z,13.61
2023-05-18T06:13:52.601Z,13.56
2023-05-18T06:14:52.608Z,13.69
2023-05-18T06:15:52.631Z,13.66
2023-05-18T06:16:52.699Z,13.73
2023-05-18T06:17:52.709Z,13.66
2023-05-18T06:18:52.679Z,13.71
2023-05-18T06:19:52.689Z,13.71
2023-05-18T06:20:52.691Z,13.84
2023-05-18T06:21:52.676Z,13.88
2023-05-18T06:22:52.700Z,13.97
2023-05-18T06:23:52.770Z,14.01
2023-05-18T06:24:52.767Z,14.04
2023-05-18T06:25:52.847Z,13.85
2023-05-18T06:26:52.843Z,13.90
2023-05-18T06:27:52.911Z,13.74
2023-05-18T06:28:52.911Z,13.87
2023-05-18T06:29:52.917Z,13.97
2023-05-18T06:30:52.940Z,13.91
2023-05-18T06:31:53.033Z,14.04
2023-05-18T06:32:53.074Z,13.85
2023-05-18T06:33:53.028Z,13.85
2023-05-18T06:34:53.085Z,13.88
2023-05-18T06:35:53.084Z,14.07
2023-05-18T06:36:53.085Z,14.07
2023-05-18T06:37:53.117Z,14.21
2023-05-18T06:38:53.124Z,14.28
2023-05-18T06:39:53.189Z,14.37
2023-05-18T06:40:53.217Z,14.47
2023-05-18T06:41:53.259Z,14.58
2023-05-18T06:42:53.306Z,14.66
2023-05-18T06:43:53.346Z,14.73
2023-05-18T06:44:53.334Z,14.83
2023-05-18T06:45:53.433Z,14.90
2023-05-18T06:46:53.384Z,14.94
2023-05-18T06:47:53.452Z,14.82
2023-05-18T06:48:53.445Z,14.66
2023-05-18T06:49:53.464Z,14.01
2023-05-18T06:50:53.499Z,13.76
2023-05-18T06:51:53.490Z,13.97
2023-05-18T06:52:53.499Z,14.09
2023-05-18T06:53:53.569Z,14.25
2023-05-18T06:54:53.567Z,14.19
2023-05-18T06:55:53.599Z,14.18
2023-05-18T06:56:53.704Z,14.22
2023-05-18T06:57:53.696Z,14.49
2023-05-18T06:58:53.729Z,14.64
2023-05-18T06:59:53.818Z,14.77
2023-05-18T07:00:53.831Z,14.86
2023-05-18T07:01:53.948Z,14.80
2023-05-18T07:02:53.921Z,14.95
2023-05-18T07:03:53.915Z,15.05
2023-05-18T07:04:53.927Z,15.15
2023-05-18T07:05:53.909Z,15.15
2023-05-18T07:06:53.987Z,15.27
2023-05-18T07:07:54.073Z,15.38
2023-05-18T07:08:54.028Z,15.45
2023-05-18T07:09:53.997Z,15.53
2023-05-18T07:10:54.031Z,15.56
2023-05-18T07:11:54.143Z,15.59
2023-05-18T07:12:54.187Z,15.69
2023-05-18T07:13:54.126Z,15.69
2023-05-18T07:14:54.192Z,15.46
2023-05-18T07:15:54.239Z,15.34
2023-05-18T07:16:54.228Z,15.20
2023-05-18T07:17:54.363Z,15.27
2023-05-18T07:18:54.357Z,14.90
2023-05-18T07:19:54.345Z,14.86
2023-05-18T07:20:54.404Z,14.63
2023-05-18T07:21:54.476Z,14.56
2023-05-18T07:22:54.416Z,14.87
2023-05-18T07:23:54.470Z,14.73
2023-05-18T07:24:54.458Z,15.05
2023-05-18T07:25:54.483Z,15.12
2023-05-18T07:26:54.502Z,15.11
2023-05-18T07:27:54.664Z,15.34
2023-05-18T07:29:54.616Z,15.37
2023-05-18T07:30:54.641Z,15.59
2023-05-18T07:31:54.880Z,15.52
2023-05-18T07:32:54.804Z,15.46
2023-05-18T07:33:54.708Z,15.42
2023-05-18T07:34:54.747Z,15.32
2023-05-18T07:35:54.755Z,15.34
2023-05-18T07:36:54.795Z,15.41
2023-05-18T07:37:54.835Z,15.42
2023-05-18T07:38:54.940Z,15.37
2023-05-18T07:39:54.931Z,15.39
2023-05-18T07:40:54.929Z,15.27
2023-05-18T07:41:54.922Z,15.20
2023-05-18T07:42:55.001Z,15.41
2023-05-18T07:43:55.013Z,15.10
2023-05-18T07:44:55.038Z,15.02
2023-05-18T07:45:55.088Z,15.15
2023-05-18T07:46:55.069Z,15.15
2023-05-18T07:47:55.185Z,14.93
2023-05-18T07:48:55.109Z,15.04
2023-05-18T07:49:55.196Z,14.88
2023-05-18T07:50:55.209Z,14.86
2023-05-18T07:51:55.230Z,15.14
2023-05-18T07:52:55.324Z,15.10
2023-05-18T07:53:55.321Z,15.41
2023-05-18T07:54:55.353Z,15.49
2023-05-18T07:55:55.335Z,15.60
2023-05-18T07:56:55.597Z,15.73
2023-05-18T07:57:55.369Z,15.70
2023-05-18T07:58:55.427Z,15.35
2023-05-18T07:59:55.463Z,15.12
2023-05-18T08:00:55.537Z,15.29
2023-05-18T08:01:55.561Z,15.45
2023-05-18T08:02:55.705Z,15.62
2023-05-18T08:03:55.665Z,15.73
2023-05-18T08:04:55.614Z,15.66
2023-05-18T08:05:55.672Z,15.69
2023-05-18T08:06:55.664Z,15.79
2023-05-18T08:07:55.650Z,15.83
2023-05-18T08:08:55.712Z,15.97
2023-05-18T08:09:55.738Z,16.05
2023-05-18T08:10:55.793Z,16.04
2023-05-18T08:11:55.828Z,16.01
2023-05-18T08:12:55.835Z,15.90
2023-05-18T08:13:55.858Z,15.96
2023-05-18T08:14:55.913Z,16.14
2023-05-18T08:16:09.728Z,16.00
2023-05-18T08:16:56.974Z,16.10
2023-05-18T08:17:55.997Z,15.94
2023-05-18T08:18:55.962Z,16.11
2023-05-18T08:19:55.947Z,16.27
2023-05-18T08:20:55.898Z,16.04
2023-05-18T08:21:55.920Z,16.10
2023-05-18T08:22:55.909Z,16.34
2023-05-18T08:23:55.898Z,16.48
2023-05-18T08:24:55.893Z,16.41
2023-05-18T08:25:55.885Z,16.29
2023-05-18T08:26:55.879Z,16.25
2023-05-18T08:27:55.858Z,16.36
2023-05-18T08:28:55.862Z,16.31
2023-05-18T08:29:55.852Z,16.24
2023-05-18T08:30:55.847Z,16.28
2023-05-18T08:31:55.911Z,16.35
2023-05-18T08:32:55.907Z,16.38
2023-05-18T08:33:55.915Z,16.42
2023-05-18T08:34:55.928Z,16.34
2023-05-18T08:35:55.964Z,16.50
2023-05-18T08:36:56.022Z,16.32
2023-05-18T08:37:56.058Z,16.21
2023-05-18T08:38:56.117Z,16.45
2023-05-18T08:39:56.176Z,16.47
2023-05-18T08:40:56.176Z,16.17
2023-05-18T08:41:56.242Z,15.96
2023-05-18T08:42:56.247Z,15.98
2023-05-18T08:43:56.276Z,16.07
2023-05-18T08:44:56.281Z,16.10
2023-05-18T08:45:56.332Z,16.10
2023-05-18T08:46:56.409Z,16.24
2023-05-18T08:47:56.522Z,16.45
2023-05-18T08:48:56.447Z,16.28
2023-05-18T08:49:56.462Z,15.82
2023-05-18T08:50:56.570Z,15.62
2023-05-18T08:51:56.563Z,15.77
2023-05-18T08:52:56.624Z,15.93
2023-05-18T08:53:56.631Z,15.72
2023-05-18T08:54:56.718Z,15.89
2023-05-18T08:55:56.722Z,16.21
2023-05-18T08:56:56.725Z,16.38
2023-05-18T08:57:56.800Z,16.21
2023-05-18T08:58:56.826Z,16.24
2023-05-18T08:59:56.855Z,16.07
2023-05-18T09:00:56.910Z,16.14
2023-05-18T09:01:56.955Z,16.32
2023-05-18T09:02:57.097Z,16.23
2023-05-18T09:03:57.036Z,16.25
2023-05-18T09:04:57.108Z,16.10
2023-05-18T09:05:57.077Z,16.29
2023-05-18T09:06:57.109Z,16.15
2023-05-18T09:07:57.156Z,16.28
2023-05-18T09:08:57.131Z,15.65
2023-05-18T09:09:57.176Z,15.59
2023-05-18T09:10:57.221Z,15.94
2023-05-18T09:11:57.246Z,15.93
2023-05-18T09:12:57.296Z,15.39
2023-05-18T09:13:57.365Z,15.56
2023-05-18T09:14:57.358Z,15.87
2023-05-18T09:15:57.377Z,16.05
2023-05-18T09:16:57.378Z,16.17
2023-05-18T09:17:57.415Z,15.96
2023-05-18T09:18:57.448Z,15.80
2023-05-18T09:19:57.503Z,15.86
2023-05-18T09:20:57.501Z,16.15
2023-05-18T09:21:57.543Z,16.38
2023-05-18T09:22:57.535Z,16.28
2023-05-18T09:23:57.578Z,16.54
2023-05-18T09:24:57.637Z,16.73
2023-05-18T09:25:57.694Z,16.23
2023-05-18T09:26:57.701Z,16.28
2023-05-18T09:27:57.744Z,16.17
2023-05-18T09:28:57.829Z,16.31
2023-05-18T09:29:57.748Z,16.32
2023-05-18T09:30:57.846Z,16.23
2023-05-18T09:31:57.812Z,16.45
2023-05-18T09:32:57.951Z,16.52
2023-05-18T09:33:57.902Z,16.44
2023-05-18T09:34:57.876Z,16.35
2023-05-18T09:35:57.939Z,16.32
2023-05-18T09:36:57.988Z,16.15
2023-05-18T09:37:57.985Z,16.10
2023-05-18T09:38:58.029Z,16.21
2023-05-18T09:39:58.039Z,16.01
2023-05-18T09:40:58.049Z,16.20
2023-05-18T09:41:58.099Z,16.63
2023-05-18T09:42:58.136Z,16.63
2023-05-18T09:43:58.176Z,16.52
2023-05-18T09:44:58.224Z,16.47
2023-05-18T09:45:58.331Z,16.31
2023-05-18T09:46:58.336Z,16.05
2023-05-18T09:47:58.375Z,16.24
2023-05-18T09:48:58.354Z,16.51
2023-05-18T09:49:58.436Z,16.27
2023-05-18T09:50:58.464Z,16.38
2023-05-18T09:51:58.456Z,16.20
2023-05-18T09:52:58.479Z,16.50
2023-05-18T09:53:58.540Z,16.01
2023-05-18T09:54:58.582Z,16.28
2023-05-18T09:55:58.643Z,16.23
2023-05-18T09:57:09.661Z,16.28
2023-05-18T09:57:59.625Z,16.13
2023-05-18T09:58:58.612Z,16.48
2023-05-18T09:59:58.629Z,16.48
2023-05-18T10:00:58.643Z,16.52
2023-05-18T10:01:58.634Z,16.54
2023-05-18T10:02:58.637Z,16.76
2023-05-18T10:03:58.609Z,16.84
2023-05-18T10:04:58.647Z,17.05
2023-05-18T10:05:58.583Z,16.86
2023-05-18T10:06:58.590Z,17.00
2023-05-18T10:07:58.661Z,16.76
2023-05-18T10:08:58.573Z,17.13
2023-05-18T10:09:58.580Z,16.82
2023-05-18T10:10:58.594Z,16.93
2023-05-18T10:11:58.563Z,17.18
2023-05-18T10:12:58.578Z,16.82
2023-05-18T10:13:58.550Z,17.14
2023-05-18T10:14:58.543Z,16.68
2023-05-18T10:15:58.584Z,16.34
2023-05-18T10:17:14.343Z,16.62
2023-05-18T10:17:59.648Z,16.63
2023-05-18T10:18:58.638Z,16.42
2023-05-18T10:19:58.531Z,16.44
2023-05-18T10:20:59.988Z,17.02
2023-05-18T10:21:58.557Z,16.86
2023-05-18T10:22:58.572Z,17.03
2023-05-18T10:23:58.572Z,16.91
2023-05-18T10:24:58.525Z,16.58
2023-05-18T10:25:58.508Z,16.79
2023-05-18T10:26:58.519Z,17.28
2023-05-18T10:27:58.541Z,17.48
2023-05-18T10:28:58.498Z,17.66
2023-05-18T10:29:58.471Z,17.48
2023-05-18T10:30:58.543Z,17.72
2023-05-18T10:32:00.312Z,17.75
2023-05-18T10:32:58.541Z,17.49
2023-05-18T10:33:58.495Z,17.41
2023-05-18T10:34:58.476Z,17.73
2023-05-18T10:35:58.463Z,17.64
2023-05-18T10:36:58.609Z,17.71
2023-05-18T10:37:58.449Z,18.02
2023-05-18T10:38:59.239Z,17.83
2023-05-18T10:39:58.477Z,17.96
2023-05-18T10:40:58.475Z,17.97
2023-05-18T10:41:58.445Z,18.21
2023-05-18T10:42:58.444Z,18.19
2023-05-18T10:43:58.428Z,18.03
2023-05-18T10:44:58.414Z,18.23
2023-05-18T10:45:58.471Z,18.02
2023-05-18T10:46:58.470Z,18.41
2023-05-18T10:47:58.450Z,18.27
2023-05-18T10:48:58.421Z,18.21
2023-05-18T10:49:58.387Z,18.17
2023-05-18T10:50:58.396Z,17.88
2023-05-18T10:51:58.382Z,17.76
2023-05-18T10:52:58.380Z,17.71
2023-05-18T10:53:58.367Z,17.69
2023-05-18T10:54:58.370Z,17.83
2023-05-18T10:55:58.370Z,18.07
2023-05-18T10:56:58.360Z,17.89
2023-05-18T10:57:58.328Z,18.43
2023-05-18T10:58:58.381Z,18.61
2023-05-18T10:59:58.332Z,18.30
2023-05-18T11:00:58.337Z,18.38
2023-05-18T11:01:58.389Z,18.46
2023-05-18T11:02:58.355Z,18.65
2023-05-18T11:03:58.302Z,18.72
2023-05-18T11:04:58.338Z,18.36
2023-05-18T11:05:58.284Z,18.62
2023-05-18T11:06:58.321Z,18.33
2023-05-18T11:07:58.286Z,18.00
2023-05-18T11:08:58.297Z,17.96
2023-05-18T11:09:58.260Z,18.30
2023-05-18T11:10:58.325Z,18.23
2023-05-18T11:11:58.328Z,18.41
2023-05-18T11:12:58.387Z,18.54
2023-05-18T11:13:58.450Z,18.75
2023-05-18T11:14:58.428Z,18.88
2023-05-18T11:15:58.552Z,18.88
2023-05-18T11:16:58.542Z,18.76
2023-05-18T11:17:58.616Z,18.62
2023-05-18T11:18:58.649Z,18.74
2023-05-18T11:19:58.662Z,18.98
2023-05-18T11:20:58.692Z,19.03
2023-05-18T11:21:58.738Z,19.16
2023-05-18T11:22:58.775Z,19.05
2023-05-18T11:23:58.729Z,18.86
2023-05-18T11:24:58.791Z,18.85
2023-05-18T11:25:58.853Z,18.64
2023-05-18T11:26:58.856Z,18.85
2023-05-18T11:27:58.931Z,19.14
2023-05-18T11:28:58.975Z,19.33
2023-05-18T11:30:14.089Z,19.22
2023-05-18T11:31:00.002Z,19.27
2023-05-18T11:31:59.021Z,19.33
2023-05-18T11:32:59.129Z,19.54
2023-05-18T11:33:58.940Z,19.58
2023-05-18T11:34:58.960Z,19.50
2023-05-18T11:35:58.987Z,19.34
2023-05-18T11:36:58.934Z,19.58
2023-05-18T11:37:58.919Z,19.07
2023-05-18T11:38:58.936Z,19.02
2023-05-18T11:40:01.130Z,19.16
2023-05-18T11:40:58.890Z,19.29
2023-05-18T11:41:58.897Z,19.41
2023-05-18T11:42:58.894Z,19.51
2023-05-18T11:43:58.887Z,19.26
2023-05-18T11:44:58.906Z,19.51
2023-05-18T11:45:59.623Z,19.40
2023-05-18T11:46:58.856Z,19.58
2023-05-18T11:47:58.895Z,19.77
2023-05-18T11:48:58.864Z,19.85
2023-05-18T11:49:58.815Z,19.35
2023-05-18T11:50:58.860Z,19.58
2023-05-18T11:51:59.185Z,19.49
2023-05-18T11:52:58.806Z,19.26
2023-05-18T11:53:58.827Z,19.01
2023-05-18T11:54:58.838Z,19.23
2023-05-18T11:55:58.799Z,19.20
2023-05-18T11:56:58.794Z,19.23
2023-05-18T11:57:58.779Z,19.71
2023-05-18T11:58:58.793Z,19.98
2023-05-18T11:59:58.787Z,20.08
2023-05-18T12:00:58.797Z,19.72
2023-05-18T12:01:58.805Z,20.19
2023-05-18T12:02:58.900Z,20.13
2023-05-18T12:03:58.858Z,20.06
2023-05-18T12:04:58.747Z,20.15
2023-05-18T12:05:58.714Z,19.62
2023-05-18T12:06:58.745Z,19.79
2023-05-18T12:07:58.695Z,20.19
2023-05-18T12:08:59.278Z,20.36
2023-05-18T12:09:58.672Z,20.13
2023-05-18T12:10:58.740Z,20.05
2023-05-18T12:11:58.729Z,20.20
2023-05-18T12:12:58.686Z,19.74
2023-05-18T12:13:58.656Z,19.72
2023-05-18T12:14:58.647Z,20.25
2023-05-18T12:15:59.243Z,20.13
2023-05-18T12:16:58.702Z,20.67
2023-05-18T12:17:58.678Z,20.29
2023-05-18T12:18:58.663Z,20.40
2023-05-18T12:19:58.672Z,20.19
2023-05-18T12:20:58.777Z,20.51
2023-05-18T12:21:59.142Z,20.82
2023-05-18T12:22:58.748Z,20.94
2023-05-18T12:23:58.807Z,21.15
2023-05-18T12:24:58.852Z,20.77
2023-05-18T12:25:58.892Z,21.35
2023-05-18T12:26:58.925Z,21.61
2023-05-18T12:27:58.921Z,20.82
2023-05-18T12:28:58.970Z,20.39
2023-05-18T12:29:58.972Z,21.03
2023-05-18T12:30:59.036Z,21.26
2023-05-18T12:31:59.104Z,21.28
2023-05-18T12:32:59.183Z,21.42
2023-05-18T12:33:59.477Z,21.38
2023-05-18T12:34:59.147Z,21.50
2023-05-18T12:35:59.186Z,21.58
2023-05-18T12:36:59.182Z,21.64
2023-05-18T12:37:59.226Z,21.64
2023-05-18T12:38:59.243Z,21.76
2023-05-18T12:39:59.272Z,21.93
2023-05-18T12:40:59.316Z,21.77
2023-05-18T12:41:59.315Z,21.23
2023-05-18T12:42:59.367Z,21.19
2023-05-18T12:43:59.410Z,20.44
2023-05-18T12:44:59.448Z,20.85
2023-05-18T12:46:00.218Z,20.94
2023-05-18T12:46:59.503Z,20.85
2023-05-18T12:47:59.622Z,20.73
2023-05-18T12:48:59.539Z,20.78
2023-05-18T12:49:59.599Z,20.99
2023-05-18T12:50:59.585Z,21.19
2023-05-18T12:51:59.590Z,20.06
2023-05-18T12:52:59.708Z,20.26
2023-05-18T12:53:59.671Z,20.67